createdAt,value
2023-02-25T00:02:28.816Z,2.90
2023-02-25T00:07:32.004Z,3.27
2023-02-25T00:12:33.609Z,4.33
2023-02-25T00:17:35.795Z,3.30
2023-02-25T00:22:37.321Z,3.23
2023-02-25T00:27:38.915Z,3.20
2023-02-25T00:32:41.195Z,3.17
2023-02-25T00:37:42.851Z,3.00
2023-02-25T00:42:45.086Z,3.60
2023-02-25T00:47:46.710Z,3.70
2023-02-25T00:52:49.092Z,3.43
2023-02-25T00:57:50.773Z,3.80
2023-02-25T01:02:52.493Z,3.77
2023-02-25T01:07:54.215Z,4.37
2023-02-25T01:12:55.753Z,3.87
2023-02-25T01:17:57.342Z,3.30
2023-02-25T01:22:59.676Z,3.13
2023-02-25T01:28:01.335Z,3.47
2023-02-25T01:33:02.931Z,2.70
2023-02-25T01:38:04.633Z,3.47
2023-02-25T01:43:07.871Z,3.20
2023-02-25T01:48:17.574Z,3.27
2023-02-25T01:53:24.194Z,2.80
2023-02-25T01:58:27.317Z,3.20
2023-02-25T02:03:32.703Z,2.70
2023-02-25T02:08:35.372Z,2.50
2023-02-25T02:13:39.236Z,2.40
2023-02-25T02:18:43.151Z,3.03
2023-02-25T02:23:50.780Z,2.97
2023-02-25T02:29:26.743Z,2.77
2023-02-25T02:35:10.905Z,3.00
2023-02-25T02:40:16.945Z,3.37
2023-02-25T02:45:26.057Z,3.37
2023-02-25T02:50:35.651Z,3.03
2023-02-25T02:55:47.460Z,3.50
2023-02-25T03:00:55.744Z,2.77
2023-02-25T03:05:59.082Z,2.97
2023-02-25T03:11:00.907Z,2.70
2023-02-25T03:16:06.353Z,2.60
2023-02-25T03:21:14.504Z,3.97
2023-02-25T03:26:32.495Z,2.67
2023-02-25T03:31:48.727Z,2.80
2023-02-25T03:37:08.450Z,2.70
2023-02-25T03:42:12.311Z,3.10
2023-02-25T03:47:16.290Z,3.10
2023-02-25T03:52:20.611Z,2.87
2023-02-25T03:57:41.413Z,3.53
2023-02-25T04:02:44.125Z,3.10
2023-02-25T04:07:45.988Z,3.23
2023-02-25T04:12:47.774Z,3.30
2023-02-25T04:17:49.399Z,3.13
2023-02-25T04:22:51.101Z,3.17
2023-02-25T04:27:53.301Z,2.93
2023-02-25T04:32:54.979Z,3.43
2023-02-25T04:37:56.996Z,3.57
2023-02-25T04:42:58.588Z,3.00
2023-02-25T04:48:01.033Z,2.43
2023-02-25T04:53:02.795Z,3.20
2023-02-25T04:58:04.425Z,3.57
2023-02-25T05:03:06.043Z,3.40
2023-02-25T05:08:08.133Z,2.77
2023-02-25T05:13:09.770Z,3.53
2023-02-25T05:18:14.985Z,2.77
2023-02-25T05:23:17.556Z,2.60
2023-02-25T05:28:19.963Z,3.00
2023-02-25T05:33:21.674Z,3.37
2023-02-25T05:38:23.335Z,3.27
2023-02-25T05:43:25.309Z,2.77
2023-02-25T05:48:27.825Z,2.90
2023-02-25T05:53:29.498Z,3.10
2023-02-25T05:58:31.166Z,3.03
2023-02-25T06:03:32.867Z,2.80
2023-02-25T06:08:35.197Z,3.13
2023-02-25T06:13:36.891Z,4.40
2023-02-25T06:18:38.506Z,2.93
2023-02-25T06:23:41.448Z,3.33
2023-02-25T06:28:43.223Z,3.10
2023-02-25T06:33:45.814Z,2.90
2023-02-25T06:38:47.343Z,2.50
2023-02-25T06:43:52.639Z,2.80
2023-02-25T06:48:54.519Z,3.00
2023-02-25T06:53:56.213Z,3.17
2023-02-25T06:58:59.461Z,3.10
2023-02-25T07:04:01.122Z,3.03
2023-02-25T07:09:02.723Z,2.90
2023-02-25T07:14:05.852Z,2.80
2023-02-25T07:19:07.880Z,2.90
2023-02-25T07:24:12.934Z,2.87
2023-02-25T07:29:14.502Z,3.20
2023-02-25T07:34:16.186Z,3.10
2023-02-25T07:39:17.743Z,3.27
2023-02-25T07:44:19.499Z,2.87
2023-02-25T07:49:22.226Z,3.10
2023-02-25T07:54:23.871Z,2.73
2023-02-25T07:59:25.431Z,3.10
2023-02-25T08:04:27.589Z,3.33
2023-02-25T08:09:29.179Z,3.13
2023-02-25T08:14:30.847Z,2.67
2023-02-25T08:19:32.544Z,2.60
2023-02-25T08:24:34.788Z,2.83
2023-02-25T08:29:37.781Z,3.30
2023-02-25T08:34:39.443Z,3.10
2023-02-25T08:39:40.959Z,2.77
2023-02-25T08:44:42.597Z,2.80
2023-02-25T08:49:44.724Z,2.63
2023-02-25T08:54:46.412Z,2.93
2023-02-25T08:59:48.982Z,5.40
2023-02-25T09:04:50.686Z,3.10
2023-02-25T09:09:52.399Z,2.70
2023-02-25T09:14:53.937Z,3.03
2023-02-25T09:19:55.595Z,3.40
2023-02-25T09:24:57.338Z,2.40
2023-02-25T09:29:58.845Z,2.27
2023-02-25T09:35:07.278Z,2.50
2023-02-25T09:40:10.979Z,2.80
2023-02-25T09:45:16.031Z,2.60
2023-02-25T09:50:25.871Z,2.70
2023-02-25T09:55:46.389Z,2.90
2023-02-25T10:00:55.650Z,2.90
2023-02-25T10:06:14.635Z,3.17
2023-02-25T10:11:43.674Z,4.07
2023-02-25T10:16:57.660Z,3.33
2023-02-25T10:22:17.177Z,4.37
2023-02-25T10:27:24.583Z,3.90
2023-02-25T10:32:28.917Z,4.33
2023-02-25T10:37:35.356Z,4.20
2023-02-25T10:42:37.807Z,4.70
2023-02-25T10:47:42.250Z,5.03
2023-02-25T10:53:02.168Z,5.30
2023-02-25T10:58:05.032Z,5.17
2023-02-25T11:03:06.888Z,5.13
2023-02-25T11:08:32.327Z,4.93
2023-02-25T11:13:36.786Z,4.63
2023-02-25T11:18:38.830Z,4.50
2023-02-25T11:23:43.311Z,5.30
2023-02-25T11:28:47.377Z,5.50
2023-02-25T11:33:57.361Z,4.30
2023-02-25T11:39:21.367Z,4.10
2023-02-25T11:44:24.340Z,2.50
2023-02-25T11:49:48.935Z,2.50
2023-02-25T11:55:02.475Z,2.47
2023-02-25T12:00:25.516Z,2.73
2023-02-25T12:05:51.372Z,2.30
2023-02-25T12:11:08.249Z,2.47
2023-02-25T12:16:18.660Z,2.60
2023-02-25T12:21:40.713Z,2.33
2023-02-25T12:27:02.079Z,2.70
2023-02-25T12:32:11.225Z,2.80
2023-02-25T12:37:34.871Z,2.70
2023-02-25T12:42:51.588Z,2.90
2023-02-25T12:48:07.412Z,2.80
2023-02-25T12:53:29.914Z,2.30
2023-02-25T12:58:50.193Z,2.00
2023-02-25T13:04:28.699Z,2.30
2023-02-25T13:09:52.467Z,2.03
2023-02-25T13:15:16.851Z,1.70
2023-02-25T13:20:46.166Z,2.10
2023-02-25T13:26:09.548Z,1.80
2023-02-25T13:31:19.681Z,2.20
2023-02-25T13:36:42.874Z,1.80
2023-02-25T13:42:21.936Z,1.80
2023-02-25T13:47:35.273Z,2.17
2023-02-25T13:53:04.541Z,1.80
2023-02-25T13:58:24.576Z,2.53
2023-02-25T14:03:53.640Z,2.00
2023-02-25T14:09:34.010Z,2.00
2023-02-25T14:14:42.891Z,1.80
2023-02-25T14:20:18.564Z,2.17
2023-02-25T14:25:41.945Z,2.00
2023-02-25T14:31:07.438Z,1.80
2023-02-25T14:36:39.971Z,2.00
2023-02-25T14:42:07.738Z,2.17
2023-02-25T14:47:22.583Z,2.10
2023-02-25T14:52:34.657Z,2.10
2023-02-25T14:57:36.693Z,2.10
2023-02-25T15:02:53.512Z,1.87
2023-02-25T15:08:19.804Z,1.87
2023-02-25T15:13:59.155Z,1.93
2023-02-25T15:19:39.447Z,2.37
2023-02-25T15:24:42.363Z,1.80
2023-02-25T15:29:43.871Z,2.10
2023-02-25T15:35:03.097Z,2.03
2023-02-25T15:40:13.992Z,2.10
2023-02-25T15:45:28.043Z,1.73
2023-02-25T15:50:41.915Z,1.80
2023-02-25T15:55:44.377Z,1.90
2023-02-25T16:00:46.064Z,1.63
2023-02-25T16:05:47.916Z,1.63
2023-02-25T16:10:51.794Z,1.60
2023-02-25T16:15:55.937Z,1.70
2023-02-25T16:21:06.254Z,1.93
2023-02-25T16:26:29.626Z,1.90
2023-02-25T16:32:09.732Z,1.63
2023-02-25T16:37:26.806Z,2.00
2023-02-25T16:42:32.282Z,1.90
2023-02-25T16:47:36.867Z,1.73
2023-02-25T16:52:41.552Z,2.10
2023-02-25T16:58:00.788Z,1.80
2023-02-25T17:03:06.884Z,1.80
2023-02-25T17:08:17.766Z,1.83
2023-02-25T17:13:26.637Z,1.90
2023-02-25T17:18:35.624Z,2.10
2023-02-25T17:23:39.531Z,2.43
2023-02-25T17:28:42.166Z,2.20
2023-02-25T17:33:58.255Z,2.20
2023-02-25T17:39:02.633Z,2.40
2023-02-25T17:44:04.377Z,2.27
2023-02-25T17:49:18.452Z,2.50
2023-02-25T17:54:21.478Z,2.60
2023-02-25T17:59:36.403Z,2.37
2023-02-25T18:04:41.180Z,2.33
2023-02-25T18:09:42.759Z,2.87
2023-02-25T18:14:45.749Z,2.50
2023-02-25T18:19:47.531Z,3.00
2023-02-25T18:24:55.225Z,2.40
2023-02-25T18:30:00.318Z,2.17
2023-02-25T18:35:01.918Z,2.37
2023-02-25T18:40:03.965Z,2.40
2023-02-25T18:45:14.170Z,2.30
2023-02-25T18:50:16.255Z,2.73
2023-02-25T18:55:27.318Z,3.00
2023-02-25T19:00:28.955Z,2.87
2023-02-25T19:05:30.546Z,3.00
2023-02-25T19:10:34.120Z,2.60
2023-02-25T19:15:35.828Z,2.83
2023-02-25T19:20:37.511Z,3.17
2023-02-25T19:25:40.564Z,2.73
2023-02-25T19:30:43.112Z,2.60
2023-02-25T19:35:46.846Z,2.97
2023-02-25T19:40:48.707Z,2.90
2023-02-25T19:45:52.146Z,2.70
2023-02-25T19:50:53.675Z,3.57
2023-02-25T19:55:56.884Z,2.60
2023-02-25T20:01:03.738Z,2.90
2023-02-25T20:06:12.306Z,2.90
2023-02-25T20:11:14.911Z,3.50
2023-02-25T20:16:16.620Z,3.13
2023-02-25T20:21:19.023Z,3.30
2023-02-25T20:26:23.142Z,3.17
2023-02-25T20:31:26.536Z,3.10
2023-02-25T20:36:31.100Z,2.90
2023-02-25T20:41:32.671Z,3.07
2023-02-25T20:46:34.755Z,2.90
2023-02-25T20:51:36.672Z,3.33
2023-02-25T20:56:38.333Z,3.40
2023-02-25T21:01:40.789Z,3.37
2023-02-25T21:06:42.331Z,4.00
2023-02-25T21:11:43.988Z,3.77
2023-02-25T21:16:45.858Z,3.80
2023-02-25T21:21:47.463Z,3.53
2023-02-25T21:26:49.227Z,3.90
2023-02-25T21:31:50.784Z,3.90
2023-02-25T21:36:52.737Z,3.60
2023-02-25T21:41:54.392Z,3.90
2023-02-25T21:46:58.079Z,3.70
2023-02-25T21:51:59.718Z,4.07
2023-02-25T21:57:01.259Z,5.10
2023-02-25T22:02:02.856Z,5.10
2023-02-25T22:07:04.542Z,5.27
2023-02-25T22:12:06.144Z,5.80
2023-02-25T22:17:07.813Z,5.10
2023-02-25T22:22:09.473Z,4.80
2023-02-25T22:27:11.161Z,4.80
2023-02-25T22:32:12.728Z,5.27
2023-02-25T22:37:14.364Z,4.97
2023-02-25T22:42:15.894Z,5.10
2023-02-25T22:47:17.534Z,4.70
2023-02-25T22:52:19.128Z,5.00
2023-02-25T22:57:20.825Z,5.00
2023-02-25T23:02:22.671Z,5.10
2023-02-25T23:07:24.196Z,4.77
2023-02-25T23:12:25.808Z,4.60
2023-02-25T23:17:27.495Z,4.53
2023-02-25T23:22:31.035Z,4.90
2023-02-25T23:27:32.705Z,5.07
2023-02-25T23:32:34.605Z,4.93
2023-02-25T23:37:36.217Z,4.43
2023-02-25T23:42:42.352Z,4.27
2023-02-25T23:47:43.959Z,4.57
2023-02-25T23:52:46.829Z,4.60
2023-02-25T23:57:48.617Z,4.70
